WXM80 ListenWXM80 Stop

You find our weather info also at:

UK Metoffice

WeatherCloud

Weather Underground

Northeastern Weather Network

AWEKAS

Citizen Weather Observer Program (CWOP)

HAMweather, WeatherForYou, PWS Weather


Weather Underground History page Text

Daily Summary for April 6, 2017 Units:  Both    English   Metric
« Previous Day
Next Day »
Daily Weekly Monthly Yearly Custom
  High: Low: Average:
Temperature: 56.0 °F /  13.3 °C 39.8 °F /  4.3 °C 44.6 °F /  7 °C
Dew Point: 55.6 °F /  13.1 °C 38.6 °F /  3.7 °C 43.2 °F /  6.2 °C
Humidity: 99 % 88 % 95 %
Wind Speed: 16.0 mph /  25.7 km/h - 7.7 mph /  12.4 km/h
Wind Gust: 26.5 mph /  42.6 km/h - -
Wind:- - ESE
Pressure: 29.98 in /  1015.1 hPa 29.15 in /  987 hPa -
Precipitation: 0.00 in /  0 mm    
Historical Graphs
 
 
Tabular Data for April 6, 2017
Time Temperature Dew Point Pressure Wind Wind Speed Wind Gust Humidity Rainfall Rate (Hourly)
00:03 43.2 °F /  6.2 °C 40.8 °F /  4.9 °C 29.98 in /  1015.1 hPa SE 2.8 mph /  4.5 km/h 4.6 mph /  7.4 km/h 91 % 0.00 in /  0 mm
00:08 43.2 °F /  6.2 °C 40.8 °F /  4.9 °C 29.98 in /  1015.1 hPa ESE 1.8 mph /  2.9 km/h 5.0 mph /  8 km/h 91 % 0.00 in /  0 mm
00:13 43.2 °F /  6.2 °C 40.8 °F /  4.9 °C 29.98 in /  1015.1 hPa ESE 1.8 mph /  2.9 km/h 3.5 mph /  5.6 km/h 91 % 0.00 in /  0 mm
00:18 43.1 °F /  6.2 °C 40.7 °F /  4.8 °C 29.98 in /  1015.1 hPa SE 3.3 mph /  5.3 km/h 4.6 mph /  7.4 km/h 91 % 0.00 in /  0 mm
00:19 43.2 °F /  6.2 °C 40.8 °F /  4.9 °C 29.98 in /  1015.1 hPa SE 2.2 mph /  3.5 km/h 3.5 mph /  5.6 km/h 91 % 0.00 in /  0 mm
00:24 43.1 °F /  6.2 °C 40.7 °F /  4.8 °C 29.98 in /  1015.1 hPa SE 4.0 mph /  6.4 km/h 6.9 mph /  11.1 km/h 91 % 0.00 in /  0 mm
00:29 43.1 °F /  6.2 °C 40.7 °F /  4.8 °C 29.98 in /  1015.1 hPa SE 2.7 mph /  4.3 km/h 8.1 mph /  13 km/h 91 % 0.00 in /  0 mm
00:34 43.1 °F /  6.2 °C 40.7 °F /  4.8 °C 29.98 in /  1015.1 hPa South 0.5 mph /  0.8 km/h 3.0 mph /  4.8 km/h 91 % 0.00 in /  0 mm
00:39 43.2 °F /  6.2 °C 40.8 °F /  4.9 °C 29.98 in /  1015.1 hPa East 1.5 mph /  2.4 km/h 8.1 mph /  13 km/h 91 % 0.00 in /  0 mm
00:44 43.2 °F /  6.2 °C 40.8 °F /  4.9 °C 29.97 in /  1014.8 hPa SE 2.9 mph /  4.7 km/h 6.9 mph /  11.1 km/h 91 % 0.00 in /  0 mm
00:49 43.1 °F /  6.2 °C 40.7 °F /  4.8 °C 29.97 in /  1014.8 hPa East 4.7 mph /  7.6 km/h 8.1 mph /  13 km/h 91 % 0.00 in /  0 mm
00:50 43.2 °F /  6.2 °C 40.8 °F /  4.9 °C 29.97 in /  1014.8 hPa East 4.3 mph /  6.9 km/h 8.1 mph /  13 km/h 91 % 0.00 in /  0 mm
00:55 43.2 °F /  6.2 °C 41.0 °F /  5 °C 29.97 in /  1014.8 hPa East 3.5 mph /  5.6 km/h 8.1 mph /  13 km/h 92 % 0.00 in /  0 mm
01:00 43.2 °F /  6.2 °C 41.0 °F /  5 °C 29.97 in /  1014.8 hPa East 0.4 mph /  0.6 km/h 4.6 mph /  7.4 km/h 92 % 0.00 in /  0 mm
01:05 43.2 °F /  6.2 °C 41.0 °F /  5 °C 29.97 in /  1014.8 hPa East 3.1 mph /  5 km/h 6.9 mph /  11.1 km/h 92 % 0.00 in /  0 mm
01:10 43.3 °F /  6.3 °C 41.1 °F /  5.1 °C 29.97 in /  1014.8 hPa East 1.4 mph /  2.3 km/h 5.0 mph /  8 km/h 92 % 0.00 in /  0 mm
01:15 43.3 °F /  6.3 °C 41.1 °F /  5.1 °C 29.97 in /  1014.8 hPa East 3.5 mph /  5.6 km/h 7.0 mph /  11.3 km/h 92 % 0.00 in /  0 mm
01:20 43.4 °F /  6.3 °C 41.2 °F /  5.1 °C 29.96 in /  1014.4 hPa East 5.4 mph /  8.7 km/h 6.9 mph /  11.1 km/h 92 % 0.00 in /  0 mm
01:25 43.4 °F /  6.3 °C 41.2 °F /  5.1 °C 29.96 in /  1014.4 hPa East 2.1 mph /  3.4 km/h 5.8 mph /  9.3 km/h 92 % 0.00 in /  0 mm
01:31 43.4 °F /  6.3 °C 41.2 °F /  5.1 °C 29.96 in /  1014.4 hPa East 3.4 mph /  5.5 km/h 4.6 mph /  7.4 km/h 92 % 0.00 in /  0 mm
01:36 43.5 °F /  6.4 °C 41.3 °F /  5.2 °C 29.96 in /  1014.4 hPa ESE 2.8 mph /  4.5 km/h 4.6 mph /  7.4 km/h 92 % 0.00 in /  0 mm
01:41 43.5 °F /  6.4 °C 41.3 °F /  5.2 °C 29.96 in /  1014.4 hPa East 4.7 mph /  7.6 km/h 6.9 mph /  11.1 km/h 92 % 0.00 in /  0 mm
01:46 43.5 °F /  6.4 °C 41.0 °F /  5 °C 29.95 in /  1014.1 hPa East 2.2 mph /  3.5 km/h 4.6 mph /  7.4 km/h 91 % 0.00 in /  0 mm
01:51 43.5 °F /  6.4 °C 41.0 °F /  5 °C 29.95 in /  1014.1 hPa East 0.8 mph /  1.3 km/h 3.5 mph /  5.6 km/h 91 % 0.00 in /  0 mm
01:56 43.6 °F /  6.4 °C 41.1 °F /  5.1 °C 29.95 in /  1014.1 hPa ESE 3.5 mph /  5.6 km/h 6.9 mph /  11.1 km/h 91 % 0.00 in /  0 mm
02:01 43.6 °F /  6.4 °C 41.1 °F /  5.1 °C 29.95 in /  1014.1 hPa ESE 3.0 mph /  4.8 km/h 5.0 mph /  8 km/h 91 % 0.00 in /  0 mm
02:06 43.6 °F /  6.4 °C 41.1 °F /  5.1 °C 29.95 in /  1014.1 hPa SE 5.4 mph /  8.7 km/h 6.9 mph /  11.1 km/h 91 % 0.00 in /  0 mm
02:11 43.6 °F /  6.4 °C 41.1 °F /  5.1 °C 29.95 in /  1014.1 hPa East 3.3 mph /  5.3 km/h 6.9 mph /  11.1 km/h 91 % 0.00 in /  0 mm
02:16 43.6 °F /  6.4 °C 40.9 °F /  4.9 °C 29.94 in /  1013.8 hPa ESE 4.8 mph /  7.7 km/h 9.2 mph /  14.8 km/h 90 % 0.00 in /  0 mm
02:21 43.6 °F /  6.4 °C 40.9 °F /  4.9 °C 29.94 in /  1013.8 hPa East 4.7 mph /  7.6 km/h 7.0 mph /  11.3 km/h 90 % 0.00 in /  0 mm
02:26 43.7 °F /  6.5 °C 41.0 °F /  5 °C 29.95 in /  1014.1 hPa ESE 6.2 mph /  10 km/h 10.4 mph /  16.7 km/h 90 % 0.00 in /  0 mm
02:31 43.7 °F /  6.5 °C 41.0 °F /  5 °C 29.94 in /  1013.8 hPa East 4.7 mph /  7.6 km/h 7.0 mph /  11.3 km/h 90 % 0.00 in /  0 mm
02:36 43.7 °F /  6.5 °C 41.0 °F /  5 °C 29.94 in /  1013.8 hPa East 4.4 mph /  7.1 km/h 8.0 mph /  12.9 km/h 90 % 0.00 in /  0 mm
02:41 43.7 °F /  6.5 °C 41.0 °F /  5 °C 29.94 in /  1013.8 hPa East 5.8 mph /  9.3 km/h 8.1 mph /  13 km/h 90 % 0.00 in /  0 mm
02:46 43.6 °F /  6.4 °C 40.9 °F /  4.9 °C 29.93 in /  1013.4 hPa East 5.1 mph /  8.2 km/h 8.1 mph /  13 km/h 90 % 0.00 in /  0 mm
02:51 43.6 °F /  6.4 °C 40.9 °F /  4.9 °C 29.93 in /  1013.4 hPa East 5.6 mph /  9 km/h 7.0 mph /  11.3 km/h 90 % 0.00 in /  0 mm
02:56 43.6 °F /  6.4 °C 40.9 °F /  4.9 °C 29.93 in /  1013.4 hPa East 4.4 mph /  7.1 km/h 9.2 mph /  14.8 km/h 90 % 0.00 in /  0 mm
03:01 43.5 °F /  6.4 °C 40.8 °F /  4.9 °C 29.93 in /  1013.4 hPa East 7.1 mph /  11.4 km/h 9.2 mph /  14.8 km/h 90 % 0.00 in /  0 mm
03:07 43.5 °F /  6.4 °C 40.8 °F /  4.9 °C 29.93 in /  1013.4 hPa East 2.2 mph /  3.5 km/h 4.6 mph /  7.4 km/h 90 % 0.00 in /  0 mm
03:12 43.5 °F /  6.4 °C 40.8 °F /  4.9 °C 29.93 in /  1013.4 hPa ESE 3.2 mph /  5.1 km/h 5.8 mph /  9.3 km/h 90 % 0.00 in /  0 mm
03:17 43.5 °F /  6.4 °C 40.8 °F /  4.9 °C 29.93 in /  1013.4 hPa East 3.7 mph /  6 km/h 7.0 mph /  11.3 km/h 90 % 0.00 in /  0 mm
03:22 43.5 °F /  6.4 °C 40.8 °F /  4.9 °C 29.93 in /  1013.4 hPa East 4.7 mph /  7.6 km/h 6.9 mph /  11.1 km/h 90 % 0.00 in /  0 mm
03:24 43.5 °F /  6.4 °C 40.8 °F /  4.9 °C 29.93 in /  1013.4 hPa East 6.5 mph /  10.5 km/h 10.4 mph /  16.7 km/h 90 % 0.00 in /  0 mm
03:29 43.4 °F /  6.3 °C 40.7 °F /  4.8 °C 29.93 in /  1013.4 hPa East 3.5 mph /  5.6 km/h 6.9 mph /  11.1 km/h 90 % 0.00 in /  0 mm
03:34 43.4 °F /  6.3 °C 40.7 °F /  4.8 °C 29.93 in /  1013.4 hPa East 3.9 mph /  6.3 km/h 6.0 mph /  9.7 km/h 90 % 0.00 in /  0 mm
03:39 43.4 °F /  6.3 °C 40.7 °F /  4.8 °C 29.92 in /  1013.1 hPa East 6.4 mph /  10.3 km/h 8.1 mph /  13 km/h 90 % 0.00 in /  0 mm
03:44 43.4 °F /  6.3 °C 40.7 °F /  4.8 °C 29.92 in /  1013.1 hPa East 6.5 mph /  10.5 km/h 8.1 mph /  13 km/h 90 % 0.00 in /  0 mm
03:49 43.3 °F /  6.3 °C 40.6 °F /  4.8 °C 29.92 in /  1013.1 hPa East 4.5 mph /  7.2 km/h 9.2 mph /  14.8 km/h 90 % 0.00 in /  0 mm
03:54 43.3 °F /  6.3 °C 40.6 °F /  4.8 °C 29.92 in /  1013.1 hPa East 5.2 mph /  8.4 km/h 11.5 mph /  18.5 km/h 90 % 0.00 in /  0 mm
03:59 43.2 °F /  6.2 °C 40.2 °F /  4.6 °C 29.92 in /  1013.1 hPa East 8.5 mph /  13.7 km/h 10.4 mph /  16.7 km/h 89 % 0.00 in /  0 mm
04:04 43.1 °F /  6.2 °C 40.1 °F /  4.5 °C 29.91 in /  1012.8 hPa East 7.6 mph /  12.2 km/h 12.7 mph /  20.4 km/h 89 % 0.00 in /  0 mm
04:09 43.0 °F /  6.1 °C 40.0 °F /  4.4 °C 29.91 in /  1012.8 hPa East 8.1 mph /  13 km/h 12.7 mph /  20.4 km/h 89 % 0.00 in /  0 mm
04:14 42.9 °F /  6.1 °C 39.9 °F /  4.4 °C 29.91 in /  1012.8 hPa East 7.2 mph /  11.6 km/h 9.2 mph /  14.8 km/h 89 % 0.00 in /  0 mm
04:19 42.8 °F /  6 °C 39.8 °F /  4.3 °C 29.90 in /  1012.4 hPa East 9.1 mph /  14.6 km/h 13.0 mph /  20.9 km/h 89 % 0.00 in /  0 mm
04:24 42.6 °F /  5.9 °C 39.3 °F /  4.1 °C 29.91 in /  1012.8 hPa East 7.5 mph /  12.1 km/h 11.5 mph /  18.5 km/h 88 % 0.00 in /  0 mm
04:29 42.5 °F /  5.8 °C 39.5 °F /  4.2 °C 29.91 in /  1012.8 hPa East 5.1 mph /  8.2 km/h 9.2 mph /  14.8 km/h 89 % 0.00 in /  0 mm
04:34 42.4 °F /  5.8 °C 39.4 °F /  4.1 °C 29.91 in /  1012.8 hPa East 4.3 mph /  6.9 km/h 8.1 mph /  13 km/h 89 % 0.00 in /  0 mm
04:39 42.4 °F /  5.8 °C 39.4 °F /  4.1 °C 29.91 in /  1012.8 hPa East 6.9 mph /  11.1 km/h 13.8 mph /  22.2 km/h 89 % 0.00 in /  0 mm
04:44 42.3 °F /  5.7 °C 39.3 °F /  4.1 °C 29.91 in /  1012.8 hPa East 6.8 mph /  10.9 km/h 9.2 mph /  14.8 km/h 89 % 0.00 in /  0 mm
04:49 42.3 °F /  5.7 °C 39.6 °F /  4.2 °C 29.91 in /  1012.8 hPa East 6.4 mph /  10.3 km/h 10.4 mph /  16.7 km/h 90 % 0.00 in /  0 mm
04:54 42.2 °F /  5.7 °C 39.5 °F /  4.2 °C 29.91 in /  1012.8 hPa East 6.5 mph /  10.5 km/h 8.1 mph /  13 km/h 90 % 0.00 in /  0 mm
04:59 42.0 °F /  5.6 °C 39.3 °F /  4.1 °C 29.90 in /  1012.4 hPa East 9.5 mph /  15.3 km/h 12.7 mph /  20.4 km/h 90 % 0.00 in /  0 mm
05:04 41.9 °F /  5.5 °C 39.2 °F /  4 °C 29.92 in /  1013.1 hPa East 7.4 mph /  11.9 km/h 9.2 mph /  14.8 km/h 90 % 0.00 in /  0 mm
05:09 41.9 °F /  5.5 °C 39.2 °F /  4 °C 29.91 in /  1012.8 hPa East 6.9 mph /  11.1 km/h 9.2 mph /  14.8 km/h 90 % 0.00 in /  0 mm
05:14 41.8 °F /  5.4 °C 39.1 °F /  3.9 °C 29.91 in /  1012.8 hPa East 6.1 mph /  9.8 km/h 8.1 mph /  13 km/h 90 % 0.00 in /  0 mm
05:19 41.8 °F /  5.4 °C 39.4 °F /  4.1 °C 29.90 in /  1012.4 hPa East 6.5 mph /  10.5 km/h 8.1 mph /  13 km/h 91 % 0.00 in /  0 mm
05:25 41.8 °F /  5.4 °C 39.4 °F /  4.1 °C 29.89 in /  1012.1 hPa East 9.2 mph /  14.8 km/h 11.5 mph /  18.5 km/h 91 % 0.00 in /  0 mm
05:30 41.5 °F /  5.3 °C 39.1 °F /  3.9 °C 29.89 in /  1012.1 hPa East 8.2 mph /  13.2 km/h 11.5 mph /  18.5 km/h 91 % 0.00 in /  0 mm
05:35 41.4 °F /  5.2 °C 39.3 °F /  4.1 °C 29.89 in /  1012.1 hPa East 7.1 mph /  11.4 km/h 10.4 mph /  16.7 km/h 92 % 0.00 in /  0 mm
05:40 41.3 °F /  5.2 °C 39.2 °F /  4 °C 29.88 in /  1011.7 hPa East 7.5 mph /  12.1 km/h 8.1 mph /  13 km/h 92 % 0.00 in /  0 mm
05:45 41.2 °F /  5.1 °C 39.1 °F /  3.9 °C 29.89 in /  1012.1 hPa East 6.6 mph /  10.6 km/h 8.1 mph /  13 km/h 92 % 0.00 in /  0 mm
05:50 41.1 °F /  5.1 °C 39.2 °F /  4 °C 29.88 in /  1011.7 hPa East 5.8 mph /  9.3 km/h 8.1 mph /  13 km/h 93 % 0.00 in /  0 mm
05:55 41.0 °F /  5 °C 39.1 °F /  3.9 °C 29.87 in /  1011.4 hPa East 6.9 mph /  11.1 km/h 9.2 mph /  14.8 km/h 93 % 0.00 in /  0 mm
06:00 41.0 °F /  5 °C 39.1 °F /  3.9 °C 29.87 in /  1011.4 hPa East 6.6 mph /  10.6 km/h 8.1 mph /  13 km/h 93 % 0.00 in /  0 mm
06:05 40.9 °F /  4.9 °C 39.0 °F /  3.9 °C 29.86 in /  1011.1 hPa ENE 6.9 mph /  11.1 km/h 8.0 mph /  12.9 km/h 93 % 0.00 in /  0 mm
06:10 40.7 °F /  4.8 °C 38.8 °F /  3.8 °C 29.85 in /  1010.7 hPa East 7.4 mph /  11.9 km/h 11.0 mph /  17.7 km/h 93 % 0.00 in /  0 mm
06:15 40.7 °F /  4.8 °C 38.8 °F /  3.8 °C 29.85 in /  1010.7 hPa East 10.5 mph /  16.9 km/h 15.0 mph /  24.1 km/h 93 % 0.00 in /  0 mm
06:20 40.5 °F /  4.7 °C 38.6 °F /  3.7 °C 29.85 in /  1010.7 hPa East 9.8 mph /  15.8 km/h 12.7 mph /  20.4 km/h 93 % 0.00 in /  0 mm
06:25 40.5 °F /  4.7 °C 38.9 °F /  3.8 °C 29.84 in /  1010.4 hPa East 8.7 mph /  14 km/h 13.0 mph /  20.9 km/h 94 % 0.00 in /  0 mm
06:30 40.4 °F /  4.7 °C 38.8 °F /  3.8 °C 29.83 in /  1010 hPa ENE 9.1 mph /  14.6 km/h 11.5 mph /  18.5 km/h 94 % 0.00 in /  0 mm
06:35 40.2 °F /  4.6 °C 38.6 °F /  3.7 °C 29.84 in /  1010.4 hPa East 9.2 mph /  14.8 km/h 13.8 mph /  22.2 km/h 94 % 0.00 in /  0 mm
06:40 40.2 °F /  4.6 °C 38.6 °F /  3.7 °C 29.83 in /  1010 hPa East 9.5 mph /  15.3 km/h 10.4 mph /  16.7 km/h 94 % 0.00 in /  0 mm
06:45 40.1 °F /  4.5 °C 38.8 °F /  3.8 °C 29.83 in /  1010 hPa East 8.2 mph /  13.2 km/h 11.5 mph /  18.5 km/h 95 % 0.00 in /  0 mm
06:50 40.1 °F /  4.5 °C 38.8 °F /  3.8 °C 29.83 in /  1010 hPa ENE 8.1 mph /  13 km/h 10.4 mph /  16.7 km/h 95 % 0.00 in /  0 mm
06:55 40.0 °F /  4.4 °C 38.7 °F /  3.7 °C 29.83 in /  1010 hPa East 7.0 mph /  11.3 km/h 10.0 mph /  16.1 km/h 95 % 0.00 in /  0 mm
07:00 40.0 °F /  4.4 °C 38.7 °F /  3.7 °C 29.83 in /  1010 hPa ENE 5.0 mph /  8 km/h 9.2 mph /  14.8 km/h 95 % 0.00 in /  0 mm
07:05 40.0 °F /  4.4 °C 38.7 °F /  3.7 °C 29.83 in /  1010 hPa ENE 6.8 mph /  10.9 km/h 9.2 mph /  14.8 km/h 95 % 0.00 in /  0 mm
07:10 40.0 °F /  4.4 °C 38.7 °F /  3.7 °C 29.83 in /  1010 hPa East 6.1 mph /  9.8 km/h 8.1 mph /  13 km/h 95 % 0.00 in /  0 mm
07:15 40.0 °F /  4.4 °C 38.7 °F /  3.7 °C 29.83 in /  1010 hPa ENE 7.2 mph /  11.6 km/h 10.4 mph /  16.7 km/h 95 % 0.00 in /  0 mm
07:20 39.9 °F /  4.4 °C 38.9 °F /  3.8 °C 29.81 in /  1009.4 hPa ENE 8.2 mph /  13.2 km/h 10.4 mph /  16.7 km/h 96 % 0.00 in /  0 mm
07:25 39.9 °F /  4.4 °C 38.6 °F /  3.7 °C 29.81 in /  1009.4 hPa ENE 8.2 mph /  13.2 km/h 11.5 mph /  18.5 km/h 95 % 0.00 in /  0 mm
07:30 39.8 °F /  4.3 °C 38.8 °F /  3.8 °C 29.80 in /  1009 hPa ENE 9.1 mph /  14.6 km/h 11.5 mph /  18.5 km/h 96 % 0.00 in /  0 mm
07:36 39.9 °F /  4.4 °C 38.9 °F /  3.8 °C 29.80 in /  1009 hPa East 7.6 mph /  12.2 km/h 9.2 mph /  14.8 km/h 96 % 0.00 in /  0 mm
07:41 39.9 °F /  4.4 °C 38.9 °F /  3.8 °C 29.81 in /  1009.4 hPa ENE 9.1 mph /  14.6 km/h 12.7 mph /  20.4 km/h 96 % 0.00 in /  0 mm
07:46 39.9 °F /  4.4 °C 38.9 °F /  3.8 °C 29.80 in /  1009 hPa ENE 9.7 mph /  15.6 km/h 12.7 mph /  20.4 km/h 96 % 0.00 in /  0 mm
07:51 39.9 °F /  4.4 °C 38.9 °F /  3.8 °C 29.79 in /  1008.7 hPa East 10.7 mph /  17.2 km/h 15.0 mph /  24.1 km/h 96 % 0.00 in /  0 mm
07:56 39.9 °F /  4.4 °C 38.9 °F /  3.8 °C 29.79 in /  1008.7 hPa East 10.1 mph /  16.3 km/h 13.0 mph /  20.9 km/h 96 % 0.00 in /  0 mm
08:01 39.9 °F /  4.4 °C 38.9 °F /  3.8 °C 29.79 in /  1008.7 hPa ENE 11.1 mph /  17.9 km/h 13.8 mph /  22.2 km/h 96 % 0.00 in /  0 mm
08:06 40.0 °F /  4.4 °C 39.0 °F /  3.9 °C 29.79 in /  1008.7 hPa ENE 9.9 mph /  15.9 km/h 16.1 mph /  25.9 km/h 96 % 0.00 in /  0 mm
08:11 40.0 °F /  4.4 °C 39.0 °F /  3.9 °C 29.78 in /  1008.4 hPa ENE 10.6 mph /  17.1 km/h 14.0 mph /  22.5 km/h 96 % 0.00 in /  0 mm
08:16 40.0 °F /  4.4 °C 39.0 °F /  3.9 °C 29.77 in /  1008 hPa East 9.9 mph /  15.9 km/h 12.7 mph /  20.4 km/h 96 % 0.00 in /  0 mm
08:21 40.0 °F /  4.4 °C 39.0 °F /  3.9 °C 29.77 in /  1008 hPa East 11.1 mph /  17.9 km/h 15.0 mph /  24.1 km/h 96 % 0.00 in /  0 mm
08:26 40.0 °F /  4.4 °C 39.0 °F /  3.9 °C 29.76 in /  1007.7 hPa ENE 11.2 mph /  18 km/h 13.8 mph /  22.2 km/h 96 % 0.00 in /  0 mm
08:31 40.1 °F /  4.5 °C 39.1 °F /  3.9 °C 29.76 in /  1007.7 hPa East 12.9 mph /  20.8 km/h 14.0 mph /  22.5 km/h 96 % 0.00 in /  0 mm
08:36 40.1 °F /  4.5 °C 39.1 °F /  3.9 °C 29.75 in /  1007.3 hPa East 11.3 mph /  18.2 km/h 16.1 mph /  25.9 km/h 96 % 0.00 in /  0 mm
08:41 40.1 °F /  4.5 °C 39.1 °F /  3.9 °C 29.75 in /  1007.3 hPa ESE 10.5 mph /  16.9 km/h 15.0 mph /  24.1 km/h 96 % 0.00 in /  0 mm
08:46 40.2 °F /  4.6 °C 39.2 °F /  4 °C 29.75 in /  1007.3 hPa ENE 11.5 mph /  18.5 km/h 16.1 mph /  25.9 km/h 96 % 0.00 in /  0 mm
08:51 40.2 °F /  4.6 °C 39.4 °F /  4.1 °C 29.74 in /  1007 hPa East 12.5 mph /  20.1 km/h 16.1 mph /  25.9 km/h 97 % 0.00 in /  0 mm
08:56 40.2 °F /  4.6 °C 39.2 °F /  4 °C 29.74 in /  1007 hPa East 10.9 mph /  17.5 km/h 15.0 mph /  24.1 km/h 96 % 0.00 in /  0 mm
09:01 40.3 °F /  4.6 °C 39.3 °F /  4.1 °C 29.75 in /  1007.3 hPa East 10.9 mph /  17.5 km/h 13.8 mph /  22.2 km/h 96 % 0.00 in /  0 mm
09:06 40.3 °F /  4.6 °C 39.3 °F /  4.1 °C 29.75 in /  1007.3 hPa East 8.7 mph /  14 km/h 13.8 mph /  22.2 km/h 96 % 0.00 in /  0 mm
09:11 40.4 °F /  4.7 °C 39.4 °F /  4.1 °C 29.74 in /  1007 hPa East 9.4 mph /  15.1 km/h 12.7 mph /  20.4 km/h 96 % 0.00 in /  0 mm
09:16 40.4 °F /  4.7 °C 39.4 °F /  4.1 °C 29.74 in /  1007 hPa East 8.2 mph /  13.2 km/h 11.5 mph /  18.5 km/h 96 % 0.00 in /  0 mm
09:21 40.4 °F /  4.7 °C 39.4 °F /  4.1 °C 29.73 in /  1006.7 hPa East 8.4 mph /  13.5 km/h 9.2 mph /  14.8 km/h 96 % 0.00 in /  0 mm
09:26 40.4 °F /  4.7 °C 39.6 °F /  4.2 °C 29.72 in /  1006.3 hPa East 9.1 mph /  14.6 km/h 15.0 mph /  24.1 km/h 97 % 0.00 in /  0 mm
09:32 40.5 °F /  4.7 °C 39.7 °F /  4.3 °C 29.72 in /  1006.3 hPa East 10.7 mph /  17.2 km/h 15.0 mph /  24.1 km/h 97 % 0.00 in /  0 mm
09:37 40.6 °F /  4.8 °C 39.8 °F /  4.3 °C 29.72 in /  1006.3 hPa East 9.8 mph /  15.8 km/h 15.0 mph /  24.1 km/h 97 % 0.00 in /  0 mm
09:42 40.7 °F /  4.8 °C 39.9 °F /  4.4 °C 29.72 in /  1006.3 hPa East 9.9 mph /  15.9 km/h 12.7 mph /  20.4 km/h 97 % 0.00 in /  0 mm
09:47 40.7 °F /  4.8 °C 39.6 °F /  4.2 °C 29.71 in /  1006 hPa East 8.7 mph /  14 km/h 12.7 mph /  20.4 km/h 96 % 0.00 in /  0 mm
09:52 40.8 °F /  4.9 °C 39.7 °F /  4.3 °C 29.71 in /  1006 hPa East 9.2 mph /  14.8 km/h 14.0 mph /  22.5 km/h 96 % 0.00 in /  0 mm
09:57 40.8 °F /  4.9 °C 39.7 °F /  4.3 °C 29.71 in /  1006 hPa East 11.1 mph /  17.9 km/h 15.0 mph /  24.1 km/h 96 % 0.00 in /  0 mm
10:02 40.8 °F /  4.9 °C 39.7 °F /  4.3 °C 29.71 in /  1006 hPa East 9.7 mph /  15.6 km/h 11.5 mph /  18.5 km/h 96 % 0.00 in /  0 mm
10:07 40.9 °F /  4.9 °C 39.8 °F /  4.3 °C 29.70 in /  1005.6 hPa ENE 8.4 mph /  13.5 km/h 13.0 mph /  20.9 km/h 96 % 0.00 in /  0 mm
10:12 40.9 °F /  4.9 °C 39.8 °F /  4.3 °C 29.70 in /  1005.6 hPa East 11.5 mph /  18.5 km/h 15.0 mph /  24.1 km/h 96 % 0.00 in /  0 mm
10:17 40.9 °F /  4.9 °C 39.8 °F /  4.3 °C 29.70 in /  1005.6 hPa East 10.5 mph /  16.9 km/h 13.8 mph /  22.2 km/h 96 % 0.00 in /  0 mm
10:22 40.9 °F /  4.9 °C 39.8 °F /  4.3 °C 29.70 in /  1005.6 hPa ENE 8.3 mph /  13.4 km/h 10.4 mph /  16.7 km/h 96 % 0.00 in /  0 mm
10:27 41.0 °F /  5 °C 39.9 °F /  4.4 °C 29.69 in /  1005.3 hPa East 8.8 mph /  14.2 km/h 10.4 mph /  16.7 km/h 96 % 0.00 in /  0 mm
10:32 41.0 °F /  5 °C 40.2 °F /  4.6 °C 29.69 in /  1005.3 hPa East 9.0 mph /  14.5 km/h 14.0 mph /  22.5 km/h 97 % 0.00 in /  0 mm
10:37 41.1 °F /  5.1 °C 40.3 °F /  4.6 °C 29.69 in /  1005.3 hPa East 8.8 mph /  14.2 km/h 11.5 mph /  18.5 km/h 97 % 0.00 in /  0 mm
10:42 41.1 °F /  5.1 °C 40.3 °F /  4.6 °C 29.68 in /  1005 hPa East 8.5 mph /  13.7 km/h 10.4 mph /  16.7 km/h 97 % 0.00 in /  0 mm
10:47 41.2 °F /  5.1 °C 40.4 °F /  4.7 °C 29.67 in /  1004.6 hPa East 9.2 mph /  14.8 km/h 12.7 mph /  20.4 km/h 97 % 0.00 in /  0 mm
10:52 41.2 °F /  5.1 °C 40.4 °F /  4.7 °C 29.68 in /  1005 hPa East 8.8 mph /  14.2 km/h 13.8 mph /  22.2 km/h 97 % 0.00 in /  0 mm
10:57 41.3 °F /  5.2 °C 40.5 °F /  4.7 °C 29.67 in /  1004.6 hPa East 9.4 mph /  15.1 km/h 10.4 mph /  16.7 km/h 97 % 0.00 in /  0 mm
11:02 41.3 °F /  5.2 °C 40.5 °F /  4.7 °C 29.67 in /  1004.6 hPa East 7.0 mph /  11.3 km/h 9.2 mph /  14.8 km/h 97 % 0.00 in /  0 mm
11:07 41.3 °F /  5.2 °C 40.5 °F /  4.7 °C 29.67 in /  1004.6 hPa East 8.5 mph /  13.7 km/h 11.5 mph /  18.5 km/h 97 % 0.00 in /  0 mm
11:12 41.3 °F /  5.2 °C 40.5 °F /  4.7 °C 29.67 in /  1004.6 hPa ENE 7.1 mph /  11.4 km/h 11.5 mph /  18.5 km/h 97 % 0.00 in /  0 mm
11:17 41.4 °F /  5.2 °C 40.6 °F /  4.8 °C 29.67 in /  1004.6 hPa East 6.1 mph /  9.8 km/h 9.2 mph /  14.8 km/h 97 % 0.00 in /  0 mm
11:22 41.4 °F /  5.2 °C 40.6 °F /  4.8 °C 29.66 in /  1004.3 hPa East 7.1 mph /  11.4 km/h 10.4 mph /  16.7 km/h 97 % 0.00 in /  0 mm
11:27 41.4 °F /  5.2 °C 40.6 °F /  4.8 °C 29.65 in /  1003.9 hPa ENE 8.3 mph /  13.4 km/h 11.5 mph /  18.5 km/h 97 % 0.00 in /  0 mm
11:32 41.3 °F /  5.2 °C 40.5 °F /  4.7 °C 29.65 in /  1003.9 hPa ENE 7.7 mph /  12.4 km/h 10.4 mph /  16.7 km/h 97 % 0.00 in /  0 mm
11:37 41.2 °F /  5.1 °C 40.4 °F /  4.7 °C 29.66 in /  1004.3 hPa ENE 6.6 mph /  10.6 km/h 11.5 mph /  18.5 km/h 97 % 0.00 in /  0 mm
11:42 41.2 °F /  5.1 °C 40.4 °F /  4.7 °C 29.65 in /  1003.9 hPa East 8.4 mph /  13.5 km/h 11.0 mph /  17.7 km/h 97 % 0.00 in /  0 mm
11:47 41.2 °F /  5.1 °C 40.4 °F /  4.7 °C 29.64 in /  1003.6 hPa ENE 9.0 mph /  14.5 km/h 11.5 mph /  18.5 km/h 97 % 0.00 in /  0 mm
11:52 41.1 °F /  5.1 °C 40.3 °F /  4.6 °C 29.65 in /  1003.9 hPa ENE 9.0 mph /  14.5 km/h 12.7 mph /  20.4 km/h 97 % 0.00 in /  0 mm
11:57 41.1 °F /  5.1 °C 40.3 °F /  4.6 °C 29.65 in /  1003.9 hPa ENE 7.9 mph /  12.7 km/h 10.4 mph /  16.7 km/h 97 % 0.00 in /  0 mm
12:02 41.0 °F /  5 °C 40.2 °F /  4.6 °C 29.64 in /  1003.6 hPa ENE 8.7 mph /  14 km/h 10.4 mph /  16.7 km/h 97 % 0.00 in /  0 mm
12:08 41.0 °F /  5 °C 40.2 °F /  4.6 °C 29.63 in /  1003.3 hPa ENE 9.5 mph /  15.3 km/h 15.0 mph /  24.1 km/h 97 % 0.00 in /  0 mm
12:13 40.9 °F /  4.9 °C 40.1 °F /  4.5 °C 29.63 in /  1003.3 hPa East 9.1 mph /  14.6 km/h 13.8 mph /  22.2 km/h 97 % 0.00 in /  0 mm
12:18 40.9 °F /  4.9 °C 40.1 °F /  4.5 °C 29.63 in /  1003.3 hPa ENE 11.2 mph /  18 km/h 13.8 mph /  22.2 km/h 97 % 0.00 in /  0 mm
12:23 40.9 °F /  4.9 °C 40.1 °F /  4.5 °C 29.62 in /  1002.9 hPa ENE 10.1 mph /  16.3 km/h 14.0 mph /  22.5 km/h 97 % 0.00 in /  0 mm
12:28 40.9 °F /  4.9 °C 40.1 °F /  4.5 °C 29.61 in /  1002.6 hPa ENE 10.6 mph /  17.1 km/h 16.0 mph /  25.7 km/h 97 % 0.00 in /  0 mm
12:33 40.9 °F /  4.9 °C 40.1 °F /  4.5 °C 29.60 in /  1002.3 hPa East 12.8 mph /  20.6 km/h 16.1 mph /  25.9 km/h 97 % 0.00 in /  0 mm
12:38 40.9 °F /  4.9 °C 40.1 °F /  4.5 °C 29.58 in /  1001.6 hPa ENE 12.1 mph /  19.5 km/h 16.1 mph /  25.9 km/h 97 % 0.00 in /  0 mm
12:43 40.9 °F /  4.9 °C 40.1 °F /  4.5 °C 29.58 in /  1001.6 hPa ENE 9.9 mph /  15.9 km/h 18.4 mph /  29.6 km/h 97 % 0.00 in /  0 mm
12:48 40.9 °F /  4.9 °C 40.1 °F /  4.5 °C 29.58 in /  1001.6 hPa East 10.8 mph /  17.4 km/h 13.8 mph /  22.2 km/h 97 % 0.00 in /  0 mm
12:53 40.8 °F /  4.9 °C 40.0 °F /  4.4 °C 29.58 in /  1001.6 hPa East 10.2 mph /  16.4 km/h 15.0 mph /  24.1 km/h 97 % 0.00 in /  0 mm
12:56 40.8 °F /  4.9 °C 40.0 °F /  4.4 °C 29.57 in /  1001.2 hPa East 9.8 mph /  15.8 km/h 11.5 mph /  18.5 km/h 97 % 0.00 in /  0 mm
13:01 40.9 °F /  4.9 °C 40.1 °F /  4.5 °C 29.56 in /  1000.9 hPa ENE 12.6 mph /  20.3 km/h 15.0 mph /  24.1 km/h 97 % 0.00 in /  0 mm
13:06 40.9 °F /  4.9 °C 40.1 °F /  4.5 °C 29.56 in /  1000.9 hPa East 10.0 mph /  16.1 km/h 15.0 mph /  24.1 km/h 97 % 0.00 in /  0 mm
13:11 41.0 °F /  5 °C 40.2 °F /  4.6 °C 29.55 in /  1000.6 hPa ENE 12.5 mph /  20.1 km/h 15.0 mph /  24.1 km/h 97 % 0.00 in /  0 mm
13:16 41.0 °F /  5 °C 40.2 °F /  4.6 °C 29.55 in /  1000.6 hPa ENE 11.8 mph /  19 km/h 15.0 mph /  24.1 km/h 97 % 0.00 in /  0 mm
13:21 41.0 °F /  5 °C 40.2 °F /  4.6 °C 29.53 in /  999.9 hPa ENE 10.3 mph /  16.6 km/h 15.0 mph /  24.1 km/h 97 % 0.00 in /  0 mm
13:27 41.1 °F /  5.1 °C 40.6 °F /  4.8 °C 29.53 in /  999.9 hPa East 9.6 mph /  15.4 km/h 11.5 mph /  18.5 km/h 98 % 0.00 in /  0 mm
13:32 41.1 °F /  5.1 °C 40.6 °F /  4.8 °C 29.52 in /  999.5 hPa NE 10.0 mph /  16.1 km/h 14.0 mph /  22.5 km/h 98 % 0.00 in /  0 mm
13:37 41.1 °F /  5.1 °C 40.6 °F /  4.8 °C 29.51 in /  999.2 hPa East 10.3 mph /  16.6 km/h 13.8 mph /  22.2 km/h 98 % 0.00 in /  0 mm
13:42 41.2 °F /  5.1 °C 40.4 °F /  4.7 °C 29.50 in /  998.9 hPa ENE 13.2 mph /  21.2 km/h 17.3 mph /  27.8 km/h 97 % 0.00 in /  0 mm
13:47 41.3 °F /  5.2 °C 40.5 °F /  4.7 °C 29.49 in /  998.5 hPa ENE 12.5 mph /  20.1 km/h 18.4 mph /  29.6 km/h 97 % 0.00 in /  0 mm
13:52 41.4 °F /  5.2 °C 40.9 °F /  4.9 °C 29.50 in /  998.9 hPa ENE 10.3 mph /  16.6 km/h 13.8 mph /  22.2 km/h 98 % 0.00 in /  0 mm
13:57 41.3 °F /  5.2 °C 40.8 °F /  4.9 °C 29.49 in /  998.5 hPa ENE 12.8 mph /  20.6 km/h 16.1 mph /  25.9 km/h 98 % 0.00 in /  0 mm
14:02 41.2 °F /  5.1 °C 40.4 °F /  4.7 °C 29.48 in /  998.2 hPa East 11.8 mph /  19 km/h 17.3 mph /  27.8 km/h 97 % 0.00 in /  0 mm
14:07 41.2 °F /  5.1 °C 40.7 °F /  4.8 °C 29.48 in /  998.2 hPa ENE 13.9 mph /  22.4 km/h 17.3 mph /  27.8 km/h 98 % 0.00 in /  0 mm
14:12 41.2 °F /  5.1 °C 40.7 °F /  4.8 °C 29.47 in /  997.9 hPa East 12.3 mph /  19.8 km/h 18.4 mph /  29.6 km/h 98 % 0.00 in /  0 mm
14:17 41.1 °F /  5.1 °C 40.6 °F /  4.8 °C 29.46 in /  997.5 hPa ENE 13.7 mph /  22 km/h 21.9 mph /  35.2 km/h 98 % 0.00 in /  0 mm
14:22 41.1 °F /  5.1 °C 40.6 °F /  4.8 °C 29.45 in /  997.2 hPa East 12.3 mph /  19.8 km/h 23.0 mph /  37 km/h 98 % 0.00 in /  0 mm
14:27 41.1 °F /  5.1 °C 40.6 °F /  4.8 °C 29.45 in /  997.2 hPa East 16.0 mph /  25.7 km/h 19.6 mph /  31.5 km/h 98 % 0.00 in /  0 mm
14:32 41.2 °F /  5.1 °C 40.7 °F /  4.8 °C 29.44 in /  996.8 hPa East 11.7 mph /  18.8 km/h 17.3 mph /  27.8 km/h 98 % 0.00 in /  0 mm
14:37 41.6 °F /  5.3 °C 41.1 °F /  5.1 °C 29.43 in /  996.5 hPa East 11.8 mph /  19 km/h 13.8 mph /  22.2 km/h 98 % 0.00 in /  0 mm
14:42 41.9 °F /  5.5 °C 41.4 °F /  5.2 °C 29.41 in /  995.8 hPa ENE 13.8 mph /  22.2 km/h 20.7 mph /  33.3 km/h 98 % 0.00 in /  0 mm
14:47 42.0 °F /  5.6 °C 41.5 °F /  5.3 °C 29.41 in /  995.8 hPa East 13.4 mph /  21.6 km/h 19.6 mph /  31.5 km/h 98 % 0.00 in /  0 mm
14:52 42.0 °F /  5.6 °C 41.5 °F /  5.3 °C 29.42 in /  996.2 hPa ENE 13.8 mph /  22.2 km/h 16.1 mph /  25.9 km/h 98 % 0.00 in /  0 mm
14:57 41.8 °F /  5.4 °C 41.3 °F /  5.2 °C 29.41 in /  995.8 hPa East 12.0 mph /  19.3 km/h 18.4 mph /  29.6 km/h 98 % 0.00 in /  0 mm
15:02 41.7 °F /  5.4 °C 41.2 °F /  5.1 °C 29.40 in /  995.5 hPa ENE 12.2 mph /  19.6 km/h 18.4 mph /  29.6 km/h 98 % 0.00 in /  0 mm
15:07 41.6 °F /  5.3 °C 41.1 °F /  5.1 °C 29.39 in /  995.1 hPa ENE 13.0 mph /  20.9 km/h 17.0 mph /  27.4 km/h 98 % 0.00 in /  0 mm
15:12 41.5 °F /  5.3 °C 41.0 °F /  5 °C 29.38 in /  994.8 hPa ENE 11.3 mph /  18.2 km/h 14.0 mph /  22.5 km/h 98 % 0.00 in /  0 mm
15:17 41.6 °F /  5.3 °C 41.1 °F /  5.1 °C 29.38 in /  994.8 hPa ENE 13.0 mph /  20.9 km/h 16.0 mph /  25.7 km/h 98 % 0.00 in /  0 mm
15:22 41.6 °F /  5.3 °C 41.1 °F /  5.1 °C 29.36 in /  994.1 hPa ENE 14.0 mph /  22.5 km/h 22.0 mph /  35.4 km/h 98 % 0.00 in /  0 mm
15:27 41.7 °F /  5.4 °C 41.2 °F /  5.1 °C 29.35 in /  993.8 hPa ENE 14.8 mph /  23.8 km/h 25.0 mph /  40.2 km/h 98 % 0.00 in /  0 mm
15:32 41.5 °F /  5.3 °C 41.0 °F /  5 °C 29.34 in /  993.5 hPa East 13.0 mph /  20.9 km/h 24.0 mph /  38.6 km/h 98 % 0.00 in /  0 mm
15:37 41.5 °F /  5.3 °C 41.0 °F /  5 °C 29.33 in /  993.1 hPa ENE 12.5 mph /  20.1 km/h 19.6 mph /  31.5 km/h 98 % 0.00 in /  0 mm
15:42 41.4 °F /  5.2 °C 40.9 °F /  4.9 °C 29.32 in /  992.8 hPa ENE 13.5 mph /  21.7 km/h 17.3 mph /  27.8 km/h 98 % 0.00 in /  0 mm
15:47 41.5 °F /  5.3 °C 41.0 °F /  5 °C 29.32 in /  992.8 hPa ENE 11.7 mph /  18.8 km/h 13.8 mph /  22.2 km/h 98 % 0.00 in /  0 mm
15:52 41.6 °F /  5.3 °C 41.1 °F /  5.1 °C 29.30 in /  992.1 hPa East 13.4 mph /  21.6 km/h 18.4 mph /  29.6 km/h 98 % 0.00 in /  0 mm
15:57 41.5 °F /  5.3 °C 41.0 °F /  5 °C 29.31 in /  992.4 hPa East 13.2 mph /  21.2 km/h 13.2 mph /  21.2 km/h 98 % 0.00 in /  0 mm
16:02 41.5 °F /  5.3 °C 41.0 °F /  5 °C 29.30 in /  992.1 hPa ENE 14.8 mph /  23.8 km/h 18.4 mph /  29.6 km/h 98 % 0.00 in /  0 mm
16:07 41.5 °F /  5.3 °C 41.0 °F /  5 °C 29.28 in /  991.4 hPa East 14.0 mph /  22.5 km/h 18.0 mph /  29 km/h 98 % 0.00 in /  0 mm
16:12 41.5 °F /  5.3 °C 41.0 °F /  5 °C 29.26 in /  990.7 hPa East 15.0 mph /  24.1 km/h 17.3 mph /  27.8 km/h 98 % 0.00 in /  0 mm
16:17 41.5 °F /  5.3 °C 41.0 °F /  5 °C 29.27 in /  991.1 hPa ENE 13.7 mph /  22 km/h 18.4 mph /  29.6 km/h 98 % 0.00 in /  0 mm
16:22 41.6 °F /  5.3 °C 41.1 °F /  5.1 °C 29.26 in /  990.7 hPa East 13.9 mph /  22.4 km/h 18.4 mph /  29.6 km/h 98 % 0.00 in /  0 mm
16:27 41.6 °F /  5.3 °C 41.1 °F /  5.1 °C 29.26 in /  990.7 hPa East 9.9 mph /  15.9 km/h 15.0 mph /  24.1 km/h 98 % 0.00 in /  0 mm
16:32 42.0 °F /  5.6 °C 41.5 °F /  5.3 °C 29.24 in /  990.1 hPa East 9.4 mph /  15.1 km/h 13.8 mph /  22.2 km/h 98 % 0.00 in /  0 mm
16:37 42.3 °F /  5.7 °C 41.8 °F /  5.4 °C 29.25 in /  990.4 hPa ENE 8.0 mph /  12.9 km/h 15.0 mph /  24.1 km/h 98 % 0.00 in /  0 mm
16:42 42.5 °F /  5.8 °C 42.0 °F /  5.6 °C 29.22 in /  989.4 hPa ENE 12.2 mph /  19.6 km/h 15.0 mph /  24.1 km/h 98 % 0.00 in /  0 mm
16:47 42.6 °F /  5.9 °C 42.1 °F /  5.6 °C 29.20 in /  988.7 hPa East 11.7 mph /  18.8 km/h 14.0 mph /  22.5 km/h 98 % 0.00 in /  0 mm
16:52 42.6 °F /  5.9 °C 42.1 °F /  5.6 °C 29.20 in /  988.7 hPa East 12.0 mph /  19.3 km/h 17.0 mph /  27.4 km/h 98 % 0.00 in /  0 mm
16:57 42.7 °F /  5.9 °C 42.2 °F /  5.7 °C 29.18 in /  988 hPa East 12.7 mph /  20.4 km/h 14.0 mph /  22.5 km/h 98 % 0.00 in /  0 mm
17:02 43.0 °F /  6.1 °C 42.5 °F /  5.8 °C 29.16 in /  987.4 hPa ENE 10.8 mph /  17.4 km/h 13.8 mph /  22.2 km/h 98 % 0.00 in /  0 mm
17:07 43.4 °F /  6.3 °C 42.9 °F /  6.1 °C 29.17 in /  987.7 hPa East 13.0 mph /  20.9 km/h 18.0 mph /  29 km/h 98 % 0.00 in /  0 mm
17:12 43.9 °F /  6.6 °C 43.4 °F /  6.3 °C 29.15 in /  987 hPa East 9.3 mph /  15 km/h 12.7 mph /  20.4 km/h 98 % 0.00 in /  0 mm
17:14 44.0 °F /  6.7 °C 43.5 °F /  6.4 °C 29.18 in /  988 hPa ENE 3.2 mph /  5.1 km/h 8.1 mph /  13 km/h 98 % 0.00 in /  0 mm
17:19 47.2 °F /  8.4 °C 46.7 °F /  8.2 °C 29.18 in /  988 hPa South 12.4 mph /  20 km/h 19.6 mph /  31.5 km/h 98 % 0.00 in /  0 mm
17:24 53.0 °F /  11.7 °C 52.5 °F /  11.4 °C 29.19 in /  988.4 hPa SSW 8.3 mph /  13.4 km/h 11.5 mph /  18.5 km/h 98 % 0.00 in /  0 mm
17:29 55.1 °F /  12.8 °C 54.8 °F /  12.7 °C 29.21 in /  989.1 hPa SW 15.0 mph /  24.1 km/h 26.5 mph /  42.6 km/h 99 % 0.00 in /  0 mm
17:34 55.9 °F /  13.3 °C 55.3 °F /  12.9 °C 29.21 in /  989.1 hPa South 6.1 mph /  9.8 km/h 19.6 mph /  31.5 km/h 98 % 0.00 in /  0 mm
17:39 56.0 °F /  13.3 °C 55.4 °F /  13 °C 29.21 in /  989.1 hPa South 9.3 mph /  15 km/h 13.8 mph /  22.2 km/h 98 % 0.00 in /  0 mm
17:44 55.9 °F /  13.3 °C 55.6 °F /  13.1 °C 29.21 in /  989.1 hPa SSW 8.1 mph /  13 km/h 12.0 mph /  19.3 km/h 99 % 0.00 in /  0 mm
17:49 55.8 °F /  13.2 °C 55.5 °F /  13.1 °C 29.21 in /  989.1 hPa South 7.7 mph /  12.4 km/h 11.5 mph /  18.5 km/h 99 % 0.00 in /  0 mm
17:54 55.6 °F /  13.1 °C 55.3 °F /  12.9 °C 29.21 in /  989.1 hPa South 8.9 mph /  14.3 km/h 15.0 mph /  24.1 km/h 99 % 0.00 in /  0 mm
17:59 55.5 °F /  13.1 °C 55.2 °F /  12.9 °C 29.20 in /  988.7 hPa South 4.7 mph /  7.6 km/h 15.0 mph /  24.1 km/h 99 % 0.00 in /  0 mm
18:04 55.3 °F /  12.9 °C 55.0 °F /  12.8 °C 29.20 in /  988.7 hPa SW 7.2 mph /  11.6 km/h 11.5 mph /  18.5 km/h 99 % 0.00 in /  0 mm
18:09 55.1 °F /  12.8 °C 54.8 °F /  12.7 °C 29.20 in /  988.7 hPa SW 6.4 mph /  10.3 km/h 11.5 mph /  18.5 km/h 99 % 0.00 in /  0 mm
18:14 54.9 °F /  12.7 °C 54.6 °F /  12.6 °C 29.20 in /  988.7 hPa South 3.6 mph /  5.8 km/h 9.2 mph /  14.8 km/h 99 % 0.00 in /  0 mm
18:20 54.8 °F /  12.7 °C 54.5 °F /  12.5 °C 29.19 in /  988.4 hPa South 5.1 mph /  8.2 km/h 6.9 mph /  11.1 km/h 99 % 0.00 in /  0 mm
18:25 54.6 °F /  12.6 °C 54.3 °F /  12.4 °C 29.20 in /  988.7 hPa SSW 3.8 mph /  6.1 km/h 4.6 mph /  7.4 km/h 99 % 0.00 in /  0 mm
18:30 54.5 °F /  12.5 °C 54.2 °F /  12.3 °C 29.20 in /  988.7 hPa South 3.6 mph /  5.8 km/h 4.6 mph /  7.4 km/h 99 % 0.00 in /  0 mm
18:35 54.4 °F /  12.4 °C 54.1 °F /  12.3 °C 29.19 in /  988.4 hPa SSW 6.4 mph /  10.3 km/h 8.1 mph /  13 km/h 99 % 0.00 in /  0 mm
18:40 54.4 °F /  12.4 °C 54.1 °F /  12.3 °C 29.19 in /  988.4 hPa SSW 4.2 mph /  6.8 km/h 7.0 mph /  11.3 km/h 99 % 0.00 in /  0 mm
18:45 54.4 °F /  12.4 °C 54.1 °F /  12.3 °C 29.19 in /  988.4 hPa SSE 3.1 mph /  5 km/h 6.9 mph /  11.1 km/h 99 % 0.00 in /  0 mm
18:50 54.4 °F /  12.4 °C 54.1 °F /  12.3 °C 29.19 in /  988.4 hPa South 5.5 mph /  8.9 km/h 8.0 mph /  12.9 km/h 99 % 0.00 in /  0 mm
18:55 54.2 °F /  12.3 °C 53.6 °F /  12 °C 29.18 in /  988 hPa SSW 2.1 mph /  3.4 km/h 5.0 mph /  8 km/h 98 % 0.00 in /  0 mm
19:00 54.2 °F /  12.3 °C 53.6 °F /  12 °C 29.18 in /  988 hPa SSE 4.5 mph /  7.2 km/h 6.9 mph /  11.1 km/h 98 % 0.00 in /  0 mm
19:05 54.2 °F /  12.3 °C 53.6 °F /  12 °C 29.18 in /  988 hPa South 3.2 mph /  5.1 km/h 5.8 mph /  9.3 km/h 98 % 0.00 in /  0 mm
19:10 54.0 °F /  12.2 °C 53.4 °F /  11.9 °C 29.18 in /  988 hPa SSE 2.2 mph /  3.5 km/h 5.8 mph /  9.3 km/h 98 % 0.00 in /  0 mm
19:15 53.9 °F /  12.2 °C 53.6 °F /  12 °C 29.17 in /  987.7 hPa SSE 4.2 mph /  6.8 km/h 8.1 mph /  13 km/h 99 % 0.00 in /  0 mm
19:20 53.7 °F /  12.1 °C 53.4 °F /  11.9 °C 29.18 in /  988 hPa South 3.9 mph /  6.3 km/h 8.1 mph /  13 km/h 99 % 0.00 in /  0 mm
19:25 53.6 °F /  12 °C 53.0 °F /  11.7 °C 29.18 in /  988 hPa SSE 6.0 mph /  9.7 km/h 10.4 mph /  16.7 km/h 98 % 0.00 in /  0 mm
19:31 53.5 °F /  11.9 °C 52.9 °F /  11.6 °C 29.17 in /  987.7 hPa SSE 3.9 mph /  6.3 km/h 10.4 mph /  16.7 km/h 98 % 0.00 in /  0 mm
19:36 53.3 °F /  11.8 °C 52.8 °F /  11.6 °C 29.18 in /  988 hPa South 4.7 mph /  7.6 km/h 9.2 mph /  14.8 km/h 98 % 0.00 in /  0 mm
19:41 53.3 °F /  11.8 °C 52.8 °F /  11.6 °C 29.18 in /  988 hPa SE 5.4 mph /  8.7 km/h 8.0 mph /  12.9 km/h 98 % 0.00 in /  0 mm
19:46 53.3 °F /  11.8 °C 52.8 °F /  11.6 °C 29.18 in /  988 hPa SSE 5.0 mph /  8 km/h 6.9 mph /  11.1 km/h 98 % 0.00 in /  0 mm
19:51 53.2 °F /  11.8 °C 52.7 °F /  11.5 °C 29.18 in /  988 hPa South 3.4 mph /  5.5 km/h 6.9 mph /  11.1 km/h 98 % 0.00 in /  0 mm
19:56 53.2 °F /  11.8 °C 52.7 °F /  11.5 °C 29.18 in /  988 hPa South 4.5 mph /  7.2 km/h 8.1 mph /  13 km/h 98 % 0.00 in /  0 mm
20:01 53.3 °F /  11.8 °C 52.8 °F /  11.6 °C 29.18 in /  988 hPa South 3.5 mph /  5.6 km/h 6.0 mph /  9.7 km/h 98 % 0.00 in /  0 mm
20:06 53.3 °F /  11.8 °C 52.8 °F /  11.6 °C 29.18 in /  988 hPa South 3.6 mph /  5.8 km/h 8.0 mph /  12.9 km/h 98 % 0.00 in /  0 mm
20:11 53.4 °F /  11.9 °C 52.8 °F /  11.6 °C 29.19 in /  988.4 hPa South 7.8 mph /  12.6 km/h 12.7 mph /  20.4 km/h 98 % 0.00 in /  0 mm
20:16 53.4 °F /  11.9 °C 52.8 °F /  11.6 °C 29.19 in /  988.4 hPa SSW 5.4 mph /  8.7 km/h 11.5 mph /  18.5 km/h 98 % 0.00 in /  0 mm
20:21 53.3 °F /  11.8 °C 52.8 °F /  11.6 °C 29.19 in /  988.4 hPa SW 6.0 mph /  9.7 km/h 11.5 mph /  18.5 km/h 98 % 0.00 in /  0 mm
20:26 53.2 °F /  11.8 °C 52.7 °F /  11.5 °C 29.19 in /  988.4 hPa SSW 4.4 mph /  7.1 km/h 10.4 mph /  16.7 km/h 98 % 0.00 in /  0 mm
20:31 53.0 °F /  11.7 °C 52.5 °F /  11.4 °C 29.19 in /  988.4 hPa SW 6.7 mph /  10.8 km/h 13.8 mph /  22.2 km/h 98 % 0.00 in /  0 mm
20:36 52.8 °F /  11.6 °C 52.3 °F /  11.3 °C 29.19 in /  988.4 hPa SSW 3.4 mph /  5.5 km/h 6.9 mph /  11.1 km/h 98 % 0.00 in /  0 mm
20:41 52.4 °F /  11.3 °C 51.9 °F /  11.1 °C 29.20 in /  988.7 hPa South 5.8 mph /  9.3 km/h 8.1 mph /  13 km/h 98 % 0.00 in /  0 mm
20:46 52.2 °F /  11.2 °C 51.7 °F /  10.9 °C 29.20 in /  988.7 hPa SW 5.8 mph /  9.3 km/h 12.7 mph /  20.4 km/h 98 % 0.00 in /  0 mm
20:51 51.9 °F /  11.1 °C 51.4 °F /  10.8 °C 29.20 in /  988.7 hPa SSW 6.7 mph /  10.8 km/h 11.5 mph /  18.5 km/h 98 % 0.00 in /  0 mm
20:56 51.7 °F /  10.9 °C 51.2 °F /  10.7 °C 29.20 in /  988.7 hPa SW 7.4 mph /  11.9 km/h 11.5 mph /  18.5 km/h 98 % 0.00 in /  0 mm
21:01 51.5 °F /  10.8 °C 51.0 °F /  10.6 °C 29.20 in /  988.7 hPa SSW 6.1 mph /  9.8 km/h 8.1 mph /  13 km/h 98 % 0.00 in /  0 mm
21:06 51.3 °F /  10.7 °C 50.5 °F /  10.3 °C 29.21 in /  989.1 hPa South 7.7 mph /  12.4 km/h 12.0 mph /  19.3 km/h 97 % 0.00 in /  0 mm
21:11 51.2 °F /  10.7 °C 50.4 °F /  10.2 °C 29.21 in /  989.1 hPa SSW 8.0 mph /  12.9 km/h 13.8 mph /  22.2 km/h 97 % 0.00 in /  0 mm
21:16 51.1 °F /  10.6 °C 50.3 °F /  10.2 °C 29.22 in /  989.4 hPa SSW 7.0 mph /  11.3 km/h 13.8 mph /  22.2 km/h 97 % 0.00 in /  0 mm
21:21 51.0 °F /  10.6 °C 50.2 °F /  10.1 °C 29.22 in /  989.4 hPa WSW 4.9 mph /  7.9 km/h 8.1 mph /  13 km/h 97 % 0.00 in /  0 mm
21:27 50.8 °F /  10.4 °C 50.0 °F /  10 °C 29.22 in /  989.4 hPa WSW 7.6 mph /  12.2 km/h 13.8 mph /  22.2 km/h 97 % 0.00 in /  0 mm
21:32 50.7 °F /  10.4 °C 49.6 °F /  9.8 °C 29.22 in /  989.4 hPa SSW 7.1 mph /  11.4 km/h 13.8 mph /  22.2 km/h 96 % 0.00 in /  0 mm
21:33 50.6 °F /  10.3 °C 49.5 °F /  9.7 °C 29.22 in /  989.4 hPa SW 7.2 mph /  11.6 km/h 13.8 mph /  22.2 km/h 96 % 0.00 in /  0 mm
21:38 50.5 °F /  10.3 °C 49.4 °F /  9.7 °C 29.22 in /  989.4 hPa WSW 6.6 mph /  10.6 km/h 11.5 mph /  18.5 km/h 96 % 0.00 in /  0 mm
21:43 50.4 °F /  10.2 °C 49.0 °F /  9.4 °C 29.23 in /  989.7 hPa SW 6.3 mph /  10.1 km/h 13.8 mph /  22.2 km/h 95 % 0.00 in /  0 mm
21:48 50.4 °F /  10.2 °C 48.7 °F /  9.3 °C 29.23 in /  989.7 hPa SSW 7.7 mph /  12.4 km/h 11.5 mph /  18.5 km/h 94 % 0.00 in /  0 mm
21:53 50.3 °F /  10.2 °C 48.6 °F /  9.2 °C 29.23 in /  989.7 hPa SW 8.1 mph /  13 km/h 13.8 mph /  22.2 km/h 94 % 0.00 in /  0 mm
21:58 50.3 °F /  10.2 °C 48.6 °F /  9.2 °C 29.23 in /  989.7 hPa SW 3.6 mph /  5.8 km/h 11.5 mph /  18.5 km/h 94 % 0.00 in /  0 mm
22:03 50.1 °F /  10.1 °C 48.2 °F /  9 °C 29.24 in /  990.1 hPa SW 7.1 mph /  11.4 km/h 11.5 mph /  18.5 km/h 93 % 0.00 in /  0 mm
22:08 50.0 °F /  10 °C 48.1 °F /  8.9 °C 29.24 in /  990.1 hPa SW 6.7 mph /  10.8 km/h 15.0 mph /  24.1 km/h 93 % 0.00 in /  0 mm
22:13 50.0 °F /  10 °C 47.8 °F /  8.8 °C 29.24 in /  990.1 hPa SW 5.7 mph /  9.2 km/h 8.1 mph /  13 km/h 92 % 0.00 in /  0 mm
22:18 49.9 °F /  9.9 °C 47.7 °F /  8.7 °C 29.24 in /  990.1 hPa SW 8.0 mph /  12.9 km/h 13.0 mph /  20.9 km/h 92 % 0.00 in /  0 mm
22:29 49.9 °F /  9.9 °C 47.4 °F /  8.6 °C 29.24 in /  990.1 hPa SSW 7.7 mph /  12.4 km/h 16.1 mph /  25.9 km/h 91 % 0.00 in /  0 mm
22:34 49.9 °F /  9.9 °C 47.1 °F /  8.4 °C 29.24 in /  990.1 hPa SW 5.5 mph /  8.9 km/h 10.0 mph /  16.1 km/h 90 % 0.00 in /  0 mm
22:39 49.9 °F /  9.9 °C 47.1 °F /  8.4 °C 29.24 in /  990.1 hPa WSW 6.6 mph /  10.6 km/h 11.5 mph /  18.5 km/h 90 % 0.00 in /  0 mm
22:44 49.9 °F /  9.9 °C 47.1 °F /  8.4 °C 29.24 in /  990.1 hPa SSW 5.7 mph /  9.2 km/h 10.4 mph /  16.7 km/h 90 % 0.00 in /  0 mm
22:49 49.8 °F /  9.9 °C 47.0 °F /  8.3 °C 29.24 in /  990.1 hPa West 6.6 mph /  10.6 km/h 11.5 mph /  18.5 km/h 90 % 0.00 in /  0 mm
22:54 49.7 °F /  9.8 °C 46.6 °F /  8.1 °C 29.24 in /  990.1 hPa SW 3.5 mph /  5.6 km/h 9.2 mph /  14.8 km/h 89 % 0.00 in /  0 mm
22:59 49.7 °F /  9.8 °C 46.6 °F /  8.1 °C 29.24 in /  990.1 hPa SW 6.8 mph /  10.9 km/h 12.0 mph /  19.3 km/h 89 % 0.00 in /  0 mm
23:04 49.7 °F /  9.8 °C 46.6 °F /  8.1 °C 29.24 in /  990.1 hPa WSW 6.3 mph /  10.1 km/h 13.0 mph /  20.9 km/h 89 % 0.00 in /  0 mm
23:09 49.6 °F /  9.8 °C 46.5 °F /  8.1 °C 29.24 in /  990.1 hPa SW 5.4 mph /  8.7 km/h 12.7 mph /  20.4 km/h 89 % 0.00 in /  0 mm
23:14 49.6 °F /  9.8 °C 46.2 °F /  7.9 °C 29.24 in /  990.1 hPa SSW 6.3 mph /  10.1 km/h 10.4 mph /  16.7 km/h 88 % 0.00 in /  0 mm
23:19 49.5 °F /  9.7 °C 46.1 °F /  7.8 °C 29.24 in /  990.1 hPa SSW 4.8 mph /  7.7 km/h 11.5 mph /  18.5 km/h 88 % 0.00 in /  0 mm
23:24 49.5 °F /  9.7 °C 46.1 °F /  7.8 °C 29.24 in /  990.1 hPa SSW 4.0 mph /  6.4 km/h 8.1 mph /  13 km/h 88 % 0.00 in /  0 mm
23:29 49.4 °F /  9.7 °C 46.3 °F /  7.9 °C 29.24 in /  990.1 hPa SSW 2.3 mph /  3.7 km/h 5.0 mph /  8 km/h 89 % 0.00 in /  0 mm
23:34 49.3 °F /  9.6 °C 46.2 °F /  7.9 °C 29.24 in /  990.1 hPa SSW 5.2 mph /  8.4 km/h 11.0 mph /  17.7 km/h 89 % 0.00 in /  0 mm
23:35 49.3 °F /  9.6 °C 46.2 °F /  7.9 °C 29.24 in /  990.1 hPa South 4.5 mph /  7.2 km/h 11.5 mph /  18.5 km/h 89 % 0.00 in /  0 mm
23:40 49.2 °F /  9.6 °C 46.1 °F /  7.8 °C 29.24 in /  990.1 hPa SW 6.0 mph /  9.7 km/h 13.8 mph /  22.2 km/h 89 % 0.00 in /  0 mm
23:45 49.2 °F /  9.6 °C 46.1 °F /  7.8 °C 29.25 in /  990.4 hPa South 6.4 mph /  10.3 km/h 13.8 mph /  22.2 km/h 89 % 0.00 in /  0 mm
23:50 49.2 °F /  9.6 °C 46.1 °F /  7.8 °C 29.25 in /  990.4 hPa SSE 4.8 mph /  7.7 km/h 7.0 mph /  11.3 km/h 89 % 0.00 in /  0 mm
23:55 49.2 °F /  9.6 °C 46.1 °F /  7.8 °C 29.25 in /  990.4 hPa WSW 2.3 mph /  3.7 km/h 9.2 mph /  14.8 km/h 89 % 0.00 in /  0 mm
Crab Meadow Weather
Compliments of Weather Underground - 3 mb

Script developed by  Jim McMurry - jmcmurry@mwt.net Adapted for the template by  Wim van der Kuil - Leuven-Template.eu

Weather Terms: Hail - Precipitation in the form of lumps of ice that form during some thunderstorms.